Time;durP1;ratioP1;P1;durP2;ratioP2;P2;SDS_P1;SDS_P2;PMS_P1;PMS_P2;Temp;Humidity;BMP_temperature;BMP_pressure;BME280_temperature;BME280_humidity;BME280_pressure;Samples;Min_cycle;Max_cycle;Signal;HPM_P1;HPM_P2
2021/04/07 00:01:41;;;;;;;6.30;4.05;;;;;;;;;;5120454;28;20020;-84
2021/04/07 00:04:08;;;;;;;7.22;3.70;;;;;;;;;;5120132;28;20030;-84
2021/04/07 00:06:35;;;;;;;5.97;3.20;;;;;;;;;;5120397;28;20020;-84
2021/04/07 00:09:01;;;;;;;7.25;3.13;;;;;;;;;;5120333;28;20023;-85
2021/04/07 00:14:31;;;;;;;5.45;2.85;;;;;;;;;;5120120;28;20068;-85
2021/04/07 00:16:57;;;;;;;5.57;3.20;;;;;;;;;;5120171;28;20049;-84
2021/04/07 00:19:23;;;;;;;6.53;2.88;;;;;;;;;;5119900;27;20049;-85
2021/04/07 00:21:49;;;;;;;7.38;3.65;;;;;;;;;;5120244;28;20114;-86
2021/04/07 00:24:15;;;;;;;4.78;3.00;;;;;;;;;;5120021;28;20325;-83
2021/04/07 00:26:41;;;;;;;6.13;2.80;;;;;;;;;;5119977;28;20069;-85
2021/04/07 00:29:07;;;;;;;5.15;2.75;;;;;;;;;;5118483;28;20031;-84
2021/04/07 00:31:33;;;;;;;10.68;2.78;;;;;;;;;;5119892;28;20035;-85
2021/04/07 00:33:59;;;;;;;4.38;2.75;;;;;;;;;;5120013;28;20318;-85
2021/04/07 00:36:25;;;;;;;4.25;2.40;;;;;;;;;;5119959;28;20154;-86
2021/04/07 00:38:51;;;;;;;5.55;2.75;;;;;;;;;;5117961;28;20104;-85
2021/04/07 00:41:18;;;;;;;4.22;2.55;;;;;;;;;;5119893;28;20375;-85
2021/04/07 00:43:44;;;;;;;7.30;2.67;;;;;;;;;;5118454;28;20392;-85
2021/04/07 00:46:10;;;;;;;5.45;2.92;;;;;;;;;;5119511;28;20061;-85
2021/04/07 00:48:36;;;;;;;8.60;3.30;;;;;;;;;;5119161;28;20057;-85
2021/04/07 00:51:02;;;;;;;5.82;3.95;;;;;;;;;;5118434;28;20028;-84
2021/04/07 00:53:28;;;;;;;6.65;3.30;;;;;;;;;;5117607;28;20015;-83
2021/04/07 00:55:54;;;;;;;4.57;3.17;;;;;;;;;;5119375;28;20092;-83
2021/04/07 00:58:20;;;;;;;5.70;3.47;;;;;;;;;;5118903;28;20503;-83
2021/04/07 01:00:46;;;;;;;8.02;4.57;;;;;;;;;;5117612;28;20097;-83
2021/04/07 01:03:13;;;;;;;3.47;2.83;;;;;;;;;;5119319;28;20020;-83
2021/04/07 01:05:40;;;;;;;5.47;2.75;;;;;;;;;;5117724;28;20055;-82
2021/04/07 01:08:06;;;;;;;3.80;2.80;;;;;;;;;;5118986;28;20020;-83
2021/04/07 01:10:32;;;;;;;5.60;2.80;;;;;;;;;;5119078;28;20081;-84
2021/04/07 01:12:58;;;;;;;5.85;3.08;;;;;;;;;;5119187;28;20028;-84
2021/04/07 01:15:25;;;;;;;5.43;2.50;;;;;;;;;;5117830;28;20028;-84
2021/04/07 01:17:51;;;;;;;5.63;2.83;;;;;;;;;;5117315;28;20070;-85
2021/04/07 01:20:18;;;;;;;4.45;3.20;;;;;;;;;;5118528;28;20425;-84
2021/04/07 01:22:49;;;;;;;4.50;3.17;;;;;;;;;;5118950;28;20035;-84
2021/04/07 01:25:15;;;;;;;4.90;3.33;;;;;;;;;;5119246;28;20047;-84
2021/04/07 01:27:41;;;;;;;4.25;3.08;;;;;;;;;;5118952;28;20016;-85
2021/04/07 01:30:12;;;;;;;6.05;3.78;;;;;;;;;;5118634;28;20020;-83
2021/04/07 01:32:39;;;;;;;7.73;3.60;;;;;;;;;;5117782;28;20020;-84
2021/04/07 01:35:06;;;;;;;5.88;3.53;;;;;;;;;;5118765;28;20027;-83
2021/04/07 01:37:35;;;;;;;4.55;3.03;;;;;;;;;;5117501;28;20060;-83
2021/04/07 01:40:03;;;;;;;5.88;3.25;;;;;;;;;;5118428;28;20032;-83
2021/04/07 01:42:29;;;;;;;7.30;4.80;;;;;;;;;;5118411;28;20020;-84
2021/04/07 01:44:55;;;;;;;9.98;5.85;;;;;;;;;;5118466;28;20044;-83
2021/04/07 01:47:21;;;;;;;6.70;4.57;;;;;;;;;;5118699;28;20310;-83
2021/04/07 01:49:48;;;;;;;6.57;4.22;;;;;;;;;;5117263;28;20043;-83
2021/04/07 01:52:14;;;;;;;6.55;3.58;;;;;;;;;;5118469;28;20019;-83
2021/04/07 01:54:40;;;;;;;8.40;3.72;;;;;;;;;;5118475;28;20065;-84
2021/04/07 01:57:08;;;;;;;5.80;3.28;;;;;;;;;;5118571;28;20024;-85
2021/04/07 01:59:34;;;;;;;6.63;3.53;;;;;;;;;;5116545;28;20028;-85
2021/04/07 02:02:01;;;;;;;9.00;3.83;;;;;;;;;;5118574;28;20023;-85
2021/04/07 02:04:27;;;;;;;9.15;4.22;;;;;;;;;;5118230;28;20399;-85
2021/04/07 02:06:53;;;;;;;11.25;3.85;;;;;;;;;;5118161;28;20023;-83
2021/04/07 02:09:20;;;;;;;5.88;3.67;;;;;;;;;;5118267;28;20032;-84
2021/04/07 02:11:50;;;;;;;10.30;3.72;;;;;;;;;;5118317;28;20031;-85
2021/04/07 02:14:17;;;;;;;5.50;3.67;;;;;;;;;;5118182;28;20032;-84
2021/04/07 02:16:56;;;;;;;9.02;4.40;;;;;;;;;;5117742;28;20024;-84
2021/04/07 02:19:23;;;;;;;5.45;3.75;;;;;;;;;;5116948;28;20039;-84
2021/04/07 02:22:01;;;;;;;7.82;4.15;;;;;;;;;;5116333;28;20107;-85
2021/04/07 02:24:28;;;;;;;9.25;4.05;;;;;;;;;;5117945;28;20020;-85
2021/04/07 02:26:54;;;;;;;6.35;3.97;;;;;;;;;;5118030;28;20039;-85
2021/04/07 02:29:20;;;;;;;5.35;3.50;;;;;;;;;;5118318;28;20039;-85
2021/04/07 02:31:46;;;;;;;7.82;3.55;;;;;;;;;;5116644;28;20028;-84
2021/04/07 02:34:12;;;;;;;8.43;4.07;;;;;;;;;;5117627;28;20027;-84
2021/04/07 02:36:38;;;;;;;9.40;4.05;;;;;;;;;;5116820;28;20323;-84
2021/04/07 02:39:05;;;;;;;5.88;4.28;;;;;;;;;;5117518;28;20416;-84
2021/04/07 02:41:31;;;;;;;6.63;4.20;;;;;;;;;;5117568;28;20369;-83
2021/04/07 02:43:57;;;;;;;8.70;4.75;;;;;;;;;;5117910;28;20069;-83
2021/04/07 02:46:24;;;;;;;7.72;4.32;;;;;;;;;;5116343;28;20032;-84
2021/04/07 02:48:50;;;;;;;7.93;4.82;;;;;;;;;;5118056;28;20127;-84
2021/04/07 02:51:16;;;;;;;10.75;5.30;;;;;;;;;;5117749;28;20020;-84
2021/04/07 02:53:42;;;;;;;9.07;5.65;;;;;;;;;;5117893;28;20317;-84
2021/04/07 02:59:11;;;;;;;8.27;5.95;;;;;;;;;;5117071;28;20073;-87
2021/04/07 03:01:37;;;;;;;9.13;6.20;;;;;;;;;;5117534;28;20022;-87
2021/04/07 03:04:04;;;;;;;9.82;6.00;;;;;;;;;;5117250;28;20064;-87
2021/04/07 03:06:30;;;;;;;13.48;6.25;;;;;;;;;;5117641;28;20023;-89
2021/04/07 03:08:56;;;;;;;12.98;6.05;;;;;;;;;;5117512;28;20026;-88
2021/04/07 03:11:22;;;;;;;9.70;6.00;;;;;;;;;;5117522;28;20027;-88
2021/04/07 03:13:48;;;;;;;13.43;6.75;;;;;;;;;;5117342;28;20106;-87
2021/04/07 03:16:14;;;;;;;10.82;6.45;;;;;;;;;;5117836;28;20322;-87
2021/04/07 03:18:40;;;;;;;10.80;6.28;;;;;;;;;;5121250;28;20019;-87
2021/04/07 03:21:06;;;;;;;11.02;6.82;;;;;;;;;;5121329;28;20027;-87
2021/04/07 03:23:32;;;;;;;9.10;6.30;;;;;;;;;;5121214;28;20027;-88
2021/04/07 03:25:58;;;;;;;9.43;6.18;;;;;;;;;;5121306;28;20016;-87
2021/04/07 03:28:25;;;;;;;12.50;7.18;;;;;;;;;;5120139;28;20060;-87
2021/04/07 03:30:51;;;;;;;11.90;7.20;;;;;;;;;;5121209;28;20026;-87
2021/04/07 03:33:21;;;;;;;11.32;7.03;;;;;;;;;;5121025;28;20050;-88
2021/04/07 03:35:47;;;;;;;11.25;7.00;;;;;;;;;;5120972;28;20049;-88
2021/04/07 03:38:14;;;;;;;11.68;6.85;;;;;;;;;;5120786;28;20323;-88
2021/04/07 03:40:40;;;;;;;10.07;6.82;;;;;;;;;;5121165;28;20051;-88
2021/04/07 03:43:07;;;;;;;10.70;6.95;;;;;;;;;;5120879;28;20024;-88
2021/04/07 03:45:33;;;;;;;11.73;6.97;;;;;;;;;;5120593;28;20317;-86
2021/04/07 03:47:59;;;;;;;12.05;7.18;;;;;;;;;;5120889;28;20020;-87
2021/04/07 03:50:26;;;;;;;12.05;6.82;;;;;;;;;;5120672;28;20039;-87
2021/04/07 03:52:52;;;;;;;12.43;7.00;;;;;;;;;;5120672;28;20019;-89
2021/04/07 03:55:18;;;;;;;13.35;7.35;;;;;;;;;;5119162;28;20032;-89
2021/04/07 03:57:44;;;;;;;13.30;8.15;;;;;;;;;;5120694;28;20049;-89
2021/04/07 04:00:10;;;;;;;15.82;8.40;;;;;;;;;;5120168;28;20027;-90
2021/04/07 04:02:37;;;;;;;16.92;8.30;;;;;;;;;;5120397;28;20061;-89
2021/04/07 04:05:03;;;;;;;13.27;7.60;;;;;;;;;;5120527;28;20114;-89
2021/04/07 04:07:29;;;;;;;17.17;8.45;;;;;;;;;;5120390;28;20405;-90
2021/04/07 04:12:59;;;;;;;15.93;7.85;;;;;;;;;;5120355;28;20309;-86
2021/04/07 04:15:25;;;;;;;13.98;8.68;;;;;;;;;;5120320;28;20484;-86
2021/04/07 04:17:52;;;;;;;11.93;7.60;;;;;;;;;;5118871;28;20042;-86
2021/04/07 04:20:19;;;;;;;12.52;7.90;;;;;;;;;;5119743;28;20043;-86
2021/04/07 04:22:45;;;;;;;12.82;8.30;;;;;;;;;;5120192;28;20020;-84
2021/04/07 04:25:30;;;;;;;17.00;8.85;;;;;;;;;;5118780;28;20019;-84
2021/04/07 04:27:56;;;;;;;12.82;8.40;;;;;;;;;;5119910;28;20405;-86
2021/04/07 04:30:23;;;;;;;16.10;9.05;;;;;;;;;;5120126;28;20049;-86
2021/04/07 04:32:50;;;;;;;15.70;9.48;;;;;;;;;;5119982;28;20375;-86
2021/04/07 04:35:16;;;;;;;13.52;7.47;;;;;;;;;;5119809;28;20023;-86
2021/04/07 04:37:43;;;;;;;11.82;7.70;;;;;;;;;;5119605;28;20034;-88
2021/04/07 04:40:10;;;;;;;14.07;7.57;;;;;;;;;;5119546;28;20053;-88
2021/04/07 04:42:36;;;;;;;14.02;8.30;;;;;;;;;;5118697;28;20065;-86
2021/04/07 04:45:03;;;;;;;15.32;7.90;;;;;;;;;;5118771;28;20520;-88
2021/04/07 04:47:29;;;;;;;10.55;7.00;;;;;;;;;;5119398;28;20405;-88
2021/04/07 04:49:55;;;;;;;10.65;7.07;;;;;;;;;;5119283;28;20036;-88
2021/04/07 04:52:21;;;;;;;15.10;8.60;;;;;;;;;;5119610;28;20019;-87
2021/04/07 04:54:48;;;;;;;14.80;8.60;;;;;;;;;;5119670;28;20110;-87
2021/04/07 04:57:33;;;;;;;13.80;8.63;;;;;;;;;;5119566;28;20107;-88
2021/04/07 04:59:59;;;;;;;11.38;7.38;;;;;;;;;;5118235;28;20136;-88
2021/04/07 05:02:25;;;;;;;13.02;8.32;;;;;;;;;;5119140;28;20019;-88
2021/04/07 05:04:51;;;;;;;14.05;8.02;;;;;;;;;;5119308;28;20031;-88
2021/04/07 05:07:17;;;;;;;11.63;7.47;;;;;;;;;;5119329;28;20020;-88
2021/04/07 05:09:43;;;;;;;14.63;8.80;;;;;;;;;;5117822;28;20035;-87
2021/04/07 05:12:27;;;;;;;18.02;9.30;;;;;;;;;;5117865;28;20027;-89
2021/04/07 05:14:54;;;;;;;14.77;10.57;;;;;;;;;;5118107;28;20027;-88
2021/04/07 05:17:20;;;;;;;29.90;18.70;;;;;;;;;;5117735;28;20036;-88
2021/04/07 05:19:46;;;;;;;37.58;25.80;;;;;;;;;;5118797;28;20184;-85
2021/04/07 05:22:12;;;;;;;26.92;17.45;;;;;;;;;;5117760;28;20350;-85
2021/04/07 05:24:38;;;;;;;20.85;11.65;;;;;;;;;;5119124;28;20313;-88
2021/04/07 05:27:04;;;;;;;24.15;12.30;;;;;;;;;;5118611;28;20024;-87
2021/04/07 05:29:30;;;;;;;31.00;14.10;;;;;;;;;;5118744;28;20035;-87
2021/04/07 05:31:56;;;;;;;26.55;12.80;;;;;;;;;;5118369;28;20039;-88
2021/04/07 05:34:22;;;;;;;25.73;10.98;;;;;;;;;;5118973;28;20107;-88
2021/04/07 05:36:48;;;;;;;29.10;12.45;;;;;;;;;;5118634;28;20031;-88
2021/04/07 05:39:14;;;;;;;16.20;9.57;;;;;;;;;;5117145;28;20030;-87
2021/04/07 05:41:42;;;;;;;15.63;9.00;;;;;;;;;;5117409;28;20042;-87
2021/04/07 05:44:08;;;;;;;16.15;9.65;;;;;;;;;;5118477;28;20022;-88
2021/04/07 05:46:35;;;;;;;15.63;9.38;;;;;;;;;;5118497;28;20023;-87
2021/04/07 05:49:01;;;;;;;17.23;9.32;;;;;;;;;;5118482;27;20106;-88
2021/04/07 05:51:27;;;;;;;15.20;9.00;;;;;;;;;;5118548;28;20015;-87
2021/04/07 05:53:53;;;;;;;14.43;8.05;;;;;;;;;;5118294;28;20059;-87
2021/04/07 05:56:19;;;;;;;12.88;8.32;;;;;;;;;;5118224;28;20046;-88
2021/04/07 05:58:45;;;;;;;16.05;8.77;;;;;;;;;;5118466;28;20019;-88
2021/04/07 06:01:11;;;;;;;15.18;9.05;;;;;;;;;;5116898;28;20127;-87
2021/04/07 06:03:37;;;;;;;14.13;9.20;;;;;;;;;;5118531;28;20022;-86
2021/04/07 06:06:07;;;;;;;15.35;7.78;;;;;;;;;;5118186;28;20027;-85
2021/04/07 06:08:33;;;;;;;13.25;8.60;;;;;;;;;;5118071;28;20032;-86
2021/04/07 06:11:00;;;;;;;16.48;10.18;;;;;;;;;;5118147;28;20031;-86
2021/04/07 06:13:26;;;;;;;18.80;10.98;;;;;;;;;;5117974;28;20032;-86
2021/04/07 06:15:52;;;;;;;16.90;11.35;;;;;;;;;;5118040;28;20027;-86
2021/04/07 06:18:18;;;;;;;15.23;9.52;;;;;;;;;;5117086;28;20344;-83
2021/04/07 06:20:45;;;;;;;18.17;11.68;;;;;;;;;;5117544;28;20064;-83
2021/04/07 06:23:12;;;;;;;16.20;9.40;;;;;;;;;;5116993;28;20062;-83
2021/04/07 06:25:39;;;;;;;17.67;9.57;;;;;;;;;;5118015;28;20023;-82
2021/04/07 06:28:06;;;;;;;19.23;9.15;;;;;;;;;;5117952;28;20057;-82
2021/04/07 06:33:20;;;;;;;17.00;9.23;;;;;;;;;;5117876;28;20031;-85
2021/04/07 06:35:47;;;;;;;17.33;9.60;;;;;;;;;;5117795;28;20058;-85
2021/04/07 06:38:14;;;;;;;14.45;8.85;;;;;;;;;;5118170;28;20102;-86
2021/04/07 06:40:40;;;;;;;21.17;9.90;;;;;;;;;;5117802;28;20348;-87
2021/04/07 06:43:06;;;;;;;15.75;9.05;;;;;;;;;;5117809;28;20020;-85
2021/04/07 06:45:35;;;;;;;18.30;9.40;;;;;;;;;;5117736;28;20231;-87
2021/04/07 06:48:01;;;;;;;14.10;8.80;;;;;;;;;;5116505;28;20063;-87
2021/04/07 06:50:28;;;;;;;13.10;7.57;;;;;;;;;;5117833;28;20073;-87
2021/04/07 06:52:56;;;;;;;12.70;8.63;;;;;;;;;;5120632;28;20055;-86
2021/04/07 06:55:22;;;;;;;14.40;8.20;;;;;;;;;;5121593;28;20164;-86
2021/04/07 06:57:48;;;;;;;12.38;7.50;;;;;;;;;;5120445;28;20059;-86
2021/04/07 07:00:15;;;;;;;11.55;7.55;;;;;;;;;;5121389;28;20030;-86
2021/04/07 07:02:41;;;;;;;11.90;7.75;;;;;;;;;;5120130;28;20028;-86
2021/04/07 07:05:08;;;;;;;15.95;7.78;;;;;;;;;;5121690;28;20054;-86
2021/04/07 07:07:34;;;;;;;15.23;7.85;;;;;;;;;;5120069;28;20027;-86
2021/04/07 07:10:01;;;;;;;13.15;7.43;;;;;;;;;;5121664;28;20024;-86
2021/04/07 07:12:28;;;;;;;12.52;7.35;;;;;;;;;;5121282;28;20019;-84
2021/04/07 07:14:54;;;;;;;13.70;7.57;;;;;;;;;;5121226;28;20023;-84
2021/04/07 07:17:27;;;;;;;12.57;7.03;;;;;;;;;;5120987;28;20111;-84
2021/04/07 07:19:53;;;;;;;12.48;8.00;;;;;;;;;;5120760;28;20048;-85
2021/04/07 07:22:23;;;;;;;13.68;7.35;;;;;;;;;;5119560;28;20028;-85
2021/04/07 07:25:08;;;;;;;9.52;6.07;;;;;;;;;;5121035;28;20031;-85
2021/04/07 07:27:35;;;;;;;10.55;6.63;;;;;;;;;;5121068;28;20016;-83
2021/04/07 07:30:02;;;;;;;10.43;6.53;;;;;;;;;;5120028;28;20051;-82
2021/04/07 07:32:38;;;;;;;22.48;10.75;;;;;;;;;;5120833;28;20102;-83
2021/04/07 07:35:10;;;;;;;25.05;10.45;;;;;;;;;;5120839;28;20047;-82
2021/04/07 07:37:37;;;;;;;12.98;7.97;;;;;;;;;;5120577;28;20019;-82
2021/04/07 07:40:07;;;;;;;11.88;7.00;;;;;;;;;;5120639;28;20031;-83
2021/04/07 07:42:33;;;;;;;14.18;7.85;;;;;;;;;;5120611;28;20145;-82
2021/04/07 07:44:59;;;;;;;9.90;6.32;;;;;;;;;;5120370;28;20019;-82
2021/04/07 07:47:33;;;;;;;13.45;6.93;;;;;;;;;;5120293;28;20030;-74
2021/04/07 07:50:00;;;;;;;13.27;6.93;;;;;;;;;;5120363;28;20028;-74
2021/04/07 07:52:27;;;;;;;33.70;13.27;;;;;;;;;;5119004;28;20063;-80
2021/04/07 07:54:53;;;;;;;13.68;8.63;;;;;;;;;;5120222;28;20024;-81
2021/04/07 07:57:19;;;;;;;17.45;7.70;;;;;;;;;;5120001;28;20023;-80
2021/04/07 07:59:45;;;;;;;43.00;13.10;;;;;;;;;;5119904;28;20112;-80
2021/04/07 08:02:15;;;;;;;26.10;10.00;;;;;;;;;;5119775;28;20043;-80
2021/04/07 08:04:48;;;;;;;23.17;9.77;;;;;;;;;;5120084;27;20020;-80
2021/04/07 08:07:14;;;;;;;31.52;12.60;;;;;;;;;;5119800;28;20019;-80
2021/04/07 08:09:41;;;;;;;14.15;8.27;;;;;;;;;;5119538;28;20024;-82
2021/04/07 08:12:10;;;;;;;43.42;17.52;;;;;;;;;;5119866;28;20047;-81
2021/04/07 08:14:39;;;;;;;18.52;9.30;;;;;;;;;;5119758;28;20031;-80
2021/04/07 08:17:06;;;;;;;13.50;7.78;;;;;;;;;;5118333;28;20367;-80
2021/04/07 08:19:34;;;;;;;23.30;8.75;;;;;;;;;;5119568;28;20055;-80
2021/04/07 08:22:00;;;;;;;31.20;10.68;;;;;;;;;;5119794;28;20086;-81
2021/04/07 08:24:29;;;;;;;39.10;14.02;;;;;;;;;;5119612;28;20024;-80
2021/04/07 08:26:56;;;;;;;48.13;20.65;;;;;;;;;;5118006;28;20039;-80
2021/04/07 08:29:24;;;;;;;26.63;14.73;;;;;;;;;;5119393;28;20020;-80
2021/04/07 08:31:51;;;;;;;20.17;10.60;;;;;;;;;;5118334;28;20331;-80
2021/04/07 08:34:17;;;;;;;16.63;9.75;;;;;;;;;;5119345;28;20024;-80
2021/04/07 08:36:45;;;;;;;17.77;9.35;;;;;;;;;;5119346;28;20023;-80
2021/04/07 08:39:12;;;;;;;12.68;7.32;;;;;;;;;;5117615;28;20141;-80
2021/04/07 08:41:38;;;;;;;10.45;6.45;;;;;;;;;;5119428;28;20023;-81
2021/04/07 08:44:05;;;;;;;10.50;6.95;;;;;;;;;;5119203;28;20394;-79
2021/04/07 08:46:50;;;;;;;7.32;4.80;;;;;;;;;;5119074;28;20047;-80
2021/04/07 08:49:35;;;;;;;10.07;6.35;;;;;;;;;;5119237;28;20317;-80
2021/04/07 08:52:15;;;;;;;20.20;9.65;;;;;;;;;;5119075;28;20026;-80
2021/04/07 08:54:42;;;;;;;25.88;13.02;;;;;;;;;;5117550;28;20050;-80
2021/04/07 08:57:10;;;;;;;16.77;9.05;;;;;;;;;;5118688;28;20405;-80
2021/04/07 08:59:46;;;;;;;41.95;21.08;;;;;;;;;;5118584;28;20032;-79
2021/04/07 09:02:17;;;;;;;28.88;15.43;;;;;;;;;;5118984;28;20332;-79
2021/04/07 09:04:43;;;;;;;21.45;11.23;;;;;;;;;;5117744;28;20417;-83
2021/04/07 09:07:12;;;;;;;27.17;13.52;;;;;;;;;;5117609;28;20032;-79
2021/04/07 09:09:38;;;;;;;24.52;12.68;;;;;;;;;;5118616;28;20428;-78
2021/04/07 09:12:05;;;;;;;11.80;5.78;;;;;;;;;;5118260;28;20039;-78
2021/04/07 09:14:35;;;;;;;16.05;9.77;;;;;;;;;;5117574;28;20043;-79
2021/04/07 09:17:02;;;;;;;6.38;4.47;;;;;;;;;;5117001;28;20063;-79
2021/04/07 09:19:30;;;;;;;11.68;5.47;;;;;;;;;;5118251;28;20123;-79
2021/04/07 09:21:56;;;;;;;13.63;5.78;;;;;;;;;;5118525;28;20042;-79
2021/04/07 09:24:27;;;;;;;10.85;7.00;;;;;;;;;;5118260;28;20026;-79
2021/04/07 09:26:54;;;;;;;12.68;6.40;;;;;;;;;;5117164;28;20031;-79
2021/04/07 09:29:20;;;;;;;14.05;5.13;;;;;;;;;;5118170;28;20043;-79
2021/04/07 09:31:46;;;;;;;6.53;4.43;;;;;;;;;;5118180;28;20030;-80
2021/04/07 09:34:14;;;;;;;5.63;3.60;;;;;;;;;;5118079;28;20078;-79
2021/04/07 09:36:41;;;;;;;7.32;4.07;;;;;;;;;;5116973;28;20026;-80
2021/04/07 09:39:14;;;;;;;9.25;4.63;;;;;;;;;;5117874;28;20020;-79
2021/04/07 09:41:42;;;;;;;8.55;5.53;;;;;;;;;;5117942;28;20031;-79
2021/04/07 09:44:09;;;;;;;7.53;4.82;;;;;;;;;;5118060;28;20016;-85
2021/04/07 09:46:35;;;;;;;5.30;3.70;;;;;;;;;;5117909;28;20016;-80
2021/04/07 09:49:06;;;;;;;9.15;6.00;;;;;;;;;;5118045;28;20069;-80
2021/04/07 09:51:32;;;;;;;6.35;3.97;;;;;;;;;;5116760;28;20026;-79
2021/04/07 09:54:14;;;;;;;6.38;3.78;;;;;;;;;;5116595;28;20024;-79
2021/04/07 09:56:59;;;;;;;6.45;3.80;;;;;;;;;;5116597;28;20098;-79
2021/04/07 09:59:45;;;;;;;6.70;3.83;;;;;;;;;;5117725;28;20460;-80
2021/04/07 10:02:12;;;;;;;9.90;4.70;;;;;;;;;;5116292;28;20058;-79
2021/04/07 10:04:42;;;;;;;5.72;3.72;;;;;;;;;;5117673;28;20027;-79
2021/04/07 10:07:09;;;;;;;6.10;3.92;;;;;;;;;;5117770;28;20034;-80
2021/04/07 10:09:35;;;;;;;8.90;4.15;;;;;;;;;;5117685;28;20047;-78
2021/04/07 10:12:01;;;;;;;9.10;3.58;;;;;;;;;;5117564;28;20026;-78
2021/04/07 10:14:28;;;;;;;5.00;2.90;;;;;;;;;;5116423;28;20033;-79
2021/04/07 10:16:54;;;;;;;4.30;2.75;;;;;;;;;;5117316;28;20024;-79
2021/04/07 10:19:26;;;;;;;8.43;3.55;;;;;;;;;;5117157;28;20051;-83
2021/04/07 10:21:57;;;;;;;6.40;3.67;;;;;;;;;;5117503;28;20049;-79
2021/04/07 10:24:23;;;;;;;7.95;4.03;;;;;;;;;;5117614;28;20024;-79
2021/04/07 10:26:50;;;;;;;8.90;4.30;;;;;;;;;;5120552;28;20416;-78
2021/04/07 10:29:26;;;;;;;5.32;3.40;;;;;;;;;;5120646;28;20028;-78
2021/04/07 10:31:56;;;;;;;5.95;3.80;;;;;;;;;;5120122;28;20039;-78
2021/04/07 10:34:32;;;;;;;6.60;3.08;;;;;;;;;;5121509;28;20042;-78
2021/04/07 10:36:58;;;;;;;7.32;3.25;;;;;;;;;;5121628;28;20106;-78
2021/04/07 10:39:25;;;;;;;6.63;4.07;;;;;;;;;;5121442;28;20127;-78
2021/04/07 10:41:52;;;;;;;10.30;4.38;;;;;;;;;;5121440;28;20020;-78
2021/04/07 10:44:29;;;;;;;8.13;3.92;;;;;;;;;;5120455;28;20030;-78
2021/04/07 10:46:55;;;;;;;15.43;4.82;;;;;;;;;;5120225;28;20022;-78
2021/04/07 10:49:22;;;;;;;10.30;3.85;;;;;;;;;;5121296;28;20032;-78
2021/04/07 10:52:04;;;;;;;6.57;2.85;;;;;;;;;;5121453;28;20024;-78
2021/04/07 10:54:30;;;;;;;9.20;3.75;;;;;;;;;;5121370;28;20333;-78
2021/04/07 10:57:09;;;;;;;7.65;3.53;;;;;;;;;;5119634;28;20023;-78
2021/04/07 10:59:35;;;;;;;8.52;3.10;;;;;;;;;;5120949;28;20106;-78
2021/04/07 11:02:14;;;;;;;11.77;4.72;;;;;;;;;;5121121;28;20042;-78
2021/04/07 11:04:40;;;;;;;5.07;2.70;;;;;;;;;;5121121;28;20020;-78
2021/04/07 11:07:07;;;;;;;3.05;2.38;;;;;;;;;;5121116;28;20024;-79
2021/04/07 11:09:38;;;;;;;5.60;3.08;;;;;;;;;;5121024;28;20316;-79
2021/04/07 11:12:04;;;;;;;4.88;3.10;;;;;;;;;;5119434;28;20036;-78
2021/04/07 11:14:31;;;;;;;6.45;3.50;;;;;;;;;;5121140;28;20026;-79
2021/04/07 11:16:58;;;;;;;5.80;2.75;;;;;;;;;;5120042;28;20016;-79
2021/04/07 11:19:24;;;;;;;6.10;2.80;;;;;;;;;;5120594;28;20057;-79
2021/04/07 11:21:51;;;;;;;8.30;4.15;;;;;;;;;;5120658;28;20343;-79
2021/04/07 11:24:17;;;;;;;9.95;5.30;;;;;;;;;;5120799;28;20039;-79
2021/04/07 11:26:43;;;;;;;16.73;9.30;;;;;;;;;;5120581;28;20024;-79
2021/04/07 11:29:10;;;;;;;20.25;11.52;;;;;;;;;;5120633;28;20065;-80
2021/04/07 11:31:36;;;;;;;18.33;10.77;;;;;;;;;;5120434;28;20102;-81
2021/04/07 11:34:06;;;;;;;5.95;3.80;;;;;;;;;;5120664;28;20020;-79
2021/04/07 11:39:35;;;;;;;19.17;13.43;;;;;;;;;;5120253;28;20440;-78
2021/04/07 11:42:06;;;;;;;12.40;8.05;;;;;;;;;;5120374;28;20295;-78
2021/04/07 11:44:33;;;;;;;24.52;14.30;;;;;;;;;;5120247;28;20318;-79
2021/04/07 11:47:01;;;;;;;9.85;5.32;;;;;;;;;;5120190;28;20027;-80
2021/04/07 11:49:27;;;;;;;5.78;4.10;;;;;;;;;;5118831;28;20063;-79
2021/04/07 11:51:53;;;;;;;6.32;3.65;;;;;;;;;;5120048;28;20342;-79
2021/04/07 11:54:19;;;;;;;8.27;6.47;;;;;;;;;;5118552;28;20028;-79
2021/04/07 11:56:47;;;;;;;18.40;9.68;;;;;;;;;;5120228;28;20382;-79
2021/04/07 11:59:14;;;;;;;16.38;6.78;;;;;;;;;;5118868;28;20139;-78
2021/04/07 12:01:40;;;;;;;13.55;6.93;;;;;;;;;;5119895;28;20047;-79
2021/04/07 12:04:06;;;;;;;17.48;8.02;;;;;;;;;;5119709;28;20310;-77
2021/04/07 12:06:32;;;;;;;13.15;6.32;;;;;;;;;;5119525;28;20042;-79
2021/04/07 12:08:59;;;;;;;5.75;3.10;;;;;;;;;;5119928;28;20398;-79
2021/04/07 12:11:25;;;;;;;7.90;4.43;;;;;;;;;;5119870;28;20050;-79
2021/04/07 12:13:52;;;;;;;13.02;6.65;;;;;;;;;;5119858;28;20031;-79
2021/04/07 12:16:18;;;;;;;5.47;3.03;;;;;;;;;;5119758;28;20020;-79
2021/04/07 12:18:44;;;;;;;11.00;4.00;;;;;;;;;;5119018;28;20027;-79
2021/04/07 12:21:12;;;;;;;9.65;4.78;;;;;;;;;;5119359;28;20030;-79
2021/04/07 12:23:38;;;;;;;7.10;3.47;;;;;;;;;;5119684;28;20024;-79
2021/04/07 12:26:04;;;;;;;20.73;8.95;;;;;;;;;;5117958;28;20085;-79
2021/04/07 12:28:30;;;;;;;10.10;4.53;;;;;;;;;;5119629;28;20016;-79
2021/04/07 12:30:56;;;;;;;20.02;7.32;;;;;;;;;;5119408;28;20409;-79
2021/04/07 12:33:26;;;;;;;14.60;6.55;;;;;;;;;;5119388;28;20429;-80
2021/04/07 12:35:53;;;;;;;9.77;5.00;;;;;;;;;;5118128;28;20476;-78
2021/04/07 12:38:21;;;;;;;7.95;3.95;;;;;;;;;;5119439;28;20077;-79
2021/04/07 12:40:50;;;;;;;5.00;2.90;;;;;;;;;;5118635;28;20035;-79
2021/04/07 12:43:16;;;;;;;6.47;3.47;;;;;;;;;;5117698;28;20374;-79
2021/04/07 12:45:43;;;;;;;10.20;5.75;;;;;;;;;;5119085;28;20313;-79
2021/04/07 12:48:09;;;;;;;40.55;21.20;;;;;;;;;;5118937;28;20035;-78
2021/04/07 12:50:36;;;;;;;24.88;13.15;;;;;;;;;;5117756;28;20028;-78
2021/04/07 12:53:03;;;;;;;13.88;6.10;;;;;;;;;;5118051;28;20310;-79
2021/04/07 12:55:33;;;;;;;9.05;5.25;;;;;;;;;;5118949;28;20020;-79
2021/04/07 12:57:59;;;;;;;8.93;4.90;;;;;;;;;;5117630;28;20024;-79
2021/04/07 13:00:29;;;;;;;10.82;4.70;;;;;;;;;;5118869;28;20070;-79
2021/04/07 13:02:55;;;;;;;11.45;7.28;;;;;;;;;;5118708;28;20027;-79
2021/04/07 13:05:21;;;;;;;8.40;3.92;;;;;;;;;;5118772;28;20030;-79
2021/04/07 13:07:48;;;;;;;10.18;5.22;;;;;;;;;;5118561;28;20051;-79
2021/04/07 13:10:18;;;;;;;9.80;5.68;;;;;;;;;;5118235;28;20298;-79
2021/04/07 13:12:44;;;;;;;19.40;10.00;;;;;;;;;;5118499;28;20035;-79
2021/04/07 13:15:10;;;;;;;12.63;6.85;;;;;;;;;;5118495;28;20097;-80
2021/04/07 13:17:36;;;;;;;10.63;6.75;;;;;;;;;;5117449;28;20024;-80
2021/04/07 13:20:04;;;;;;;6.38;3.75;;;;;;;;;;5117942;28;20051;-79
2021/04/07 13:22:30;;;;;;;10.20;6.28;;;;;;;;;;5117411;28;20024;-79
2021/04/07 13:24:56;;;;;;;12.63;6.80;;;;;;;;;;5118154;28;20020;-79
2021/04/07 13:27:22;;;;;;;8.38;3.92;;;;;;;;;;5118321;28;20409;-80
2021/04/07 13:29:48;;;;;;;3.65;2.83;;;;;;;;;;5118261;28;20027;-79
2021/04/07 13:32:19;;;;;;;17.52;4.25;;;;;;;;;;5116678;28;20077;-79
2021/04/07 13:45:22;;;;;;;10.95;6.07;;;;;;;;;;5055677;28;20021;-79
2021/04/07 13:47:48;;;;;;;17.65;7.95;;;;;;;;;;5055512;28;20037;-79
2021/04/07 13:50:15;;;;;;;16.02;8.20;;;;;;;;;;5038557;28;20048;-80
2021/04/07 13:52:41;;;;;;;16.80;7.78;;;;;;;;;;5055449;28;20064;-79
2021/04/07 13:55:08;;;;;;;17.60;7.00;;;;;;;;;;5055367;28;20037;-80
2021/04/07 13:57:34;;;;;;;6.70;2.80;;;;;;;;;;5038207;28;20039;-80
2021/04/07 14:00:00;;;;;;;5.13;2.40;;;;;;;;;;5055068;28;20094;-80
2021/04/07 14:02:32;;;;;;;3.55;2.20;;;;;;;;;;5038408;28;20033;-79
2021/04/07 14:04:59;;;;;;;7.57;2.70;;;;;;;;;;5055377;28;20029;-80
2021/04/07 14:07:25;;;;;;;5.20;2.03;;;;;;;;;;5055201;28;20394;-79
2021/04/07 14:09:51;;;;;;;6.18;2.58;;;;;;;;;;5038539;28;20036;-78
2021/04/07 14:12:27;;;;;;;3.17;2.10;;;;;;;;;;5054962;28;20032;-80
2021/04/07 14:14:53;;;;;;;5.95;2.10;;;;;;;;;;5038398;28;20457;-79
2021/04/07 14:17:19;;;;;;;6.43;2.38;;;;;;;;;;5038233;28;20028;-79
2021/04/07 14:19:45;;;;;;;5.65;2.88;;;;;;;;;;5070337;28;20044;-80
2021/04/07 14:22:13;;;;;;;6.85;2.63;;;;;;;;;;5117472;28;20349;-80
2021/04/07 14:24:39;;;;;;;3.88;2.20;;;;;;;;;;5117474;28;20062;-80
2021/04/07 14:27:05;;;;;;;4.88;1.83;;;;;;;;;;5117346;28;20016;-80
2021/04/07 14:29:33;;;;;;;5.45;2.35;;;;;;;;;;5116012;28;20028;-80
2021/04/07 14:31:59;;;;;;;4.63;2.47;;;;;;;;;;5117736;28;20110;-79
2021/04/07 14:34:25;;;;;;;4.97;2.42;;;;;;;;;;5117597;28;20102;-79
2021/04/07 14:36:51;;;;;;;5.57;2.35;;;;;;;;;;5117570;28;20023;-79
2021/04/07 14:39:17;;;;;;;4.72;2.30;;;;;;;;;;5116036;28;20073;-79
2021/04/07 14:41:43;;;;;;;4.88;2.38;;;;;;;;;;5117304;28;20458;-79
2021/04/07 14:44:11;;;;;;;6.63;2.80;;;;;;;;;;5117239;28;20027;-79
2021/04/07 14:46:37;;;;;;;8.98;3.65;;;;;;;;;;5117548;28;20020;-79
2021/04/07 14:49:03;;;;;;;4.80;2.60;;;;;;;;;;5117327;28;20318;-79
2021/04/07 14:51:39;;;;;;;5.45;2.00;;;;;;;;;;5115640;28;20085;-79
2021/04/07 14:54:16;;;;;;;5.28;1.67;;;;;;;;;;5117377;28;20023;-80
2021/04/07 14:56:43;;;;;;;3.38;1.80;;;;;;;;;;5116097;28;20404;-80
2021/04/07 14:59:10;;;;;;;1.85;1.10;;;;;;;;;;5117027;28;20413;-79
2021/04/07 15:01:37;;;;;;;2.15;1.40;;;;;;;;;;5115428;28;20036;-79